sensor_id;sensor_type;location;lat;lon;timestamp;P1;P2;P0
28026;PMS5003;15344;52.342;-1.290;2024-03-08T00:00:26;53;41;
28026;PMS5003;15344;52.342;-1.290;2024-03-08T00:02:51;53;41;
28026;PMS5003;15344;52.342;-1.290;2024-03-08T00:05:17;54;43;
28026;PMS5003;15344;52.342;-1.290;2024-03-08T00:07:42;57;45;
28026;PMS5003;15344;52.342;-1.290;2024-03-08T00:10:08;53;36;
28026;PMS5003;15344;52.342;-1.290;2024-03-08T00:12:33;54;41;
28026;PMS5003;15344;52.342;-1.290;2024-03-08T00:14:58;63;47;
28026;PMS5003;15344;52.342;-1.290;2024-03-08T00:17:24;47;44;
28026;PMS5003;15344;52.342;-1.290;2024-03-08T00:19:49;70;46;
28026;PMS5003;15344;52.342;-1.290;2024-03-08T00:22:15;64;47;
28026;PMS5003;15344;52.342;-1.290;2024-03-08T00:24:40;53;42;
28026;PMS5003;15344;52.342;-1.290;2024-03-08T00:27:06;62;49;
28026;PMS5003;15344;52.342;-1.290;2024-03-08T00:29:31;68;50;
28026;PMS5003;15344;52.342;-1.290;2024-03-08T00:31:56;58;53;
28026;PMS5003;15344;52.342;-1.290;2024-03-08T00:34:22;66;52;
28026;PMS5003;15344;52.342;-1.290;2024-03-08T00:36:48;63;48;
28026;PMS5003;15344;52.342;-1.290;2024-03-08T00:39:13;72;49;
28026;PMS5003;15344;52.342;-1.290;2024-03-08T00:41:39;63;50;
28026;PMS5003;15344;52.342;-1.290;2024-03-08T00:44:04;58;43;
28026;PMS5003;15344;52.342;-1.290;2024-03-08T00:46:29;72;52;
28026;PMS5003;15344;52.342;-1.290;2024-03-08T00:48:54;70;49;
28026;PMS5003;15344;52.342;-1.290;2024-03-08T00:51:20;62;47;
28026;PMS5003;15344;52.342;-1.290;2024-03-08T00:53:45;78;56;
28026;PMS5003;15344;52.342;-1.290;2024-03-08T00:56:11;73;57;
28026;PMS5003;15344;52.342;-1.290;2024-03-08T00:58:36;77;54;
28026;PMS5003;15344;52.342;-1.290;2024-03-08T01:01:01;78;61;
28026;PMS5003;15344;52.342;-1.290;2024-03-08T01:03:27;79;54;
28026;PMS5003;15344;52.342;-1.290;2024-03-08T01:05:52;70;49;
28026;PMS5003;15344;52.342;-1.290;2024-03-08T01:08:17;63;50;
28026;PMS5003;15344;52.342;-1.290;2024-03-08T01:10:43;67;49;
28026;PMS5003;15344;52.342;-1.290;2024-03-08T01:13:09;65;51;
28026;PMS5003;15344;52.342;-1.290;2024-03-08T01:15:34;79;54;
28026;PMS5003;15344;52.342;-1.290;2024-03-08T01:18:00;67;52;
28026;PMS5003;15344;52.342;-1.290;2024-03-08T01:20:25;67;55;
28026;PMS5003;15344;52.342;-1.290;2024-03-08T01:22:50;68;54;
28026;PMS5003;15344;52.342;-1.290;2024-03-08T01:25:16;78;59;
28026;PMS5003;15344;52.342;-1.290;2024-03-08T01:27:42;70;53;
28026;PMS5003;15344;52.342;-1.290;2024-03-08T01:30:07;72;59;
28026;PMS5003;15344;52.342;-1.290;2024-03-08T01:32:33;82;59;
28026;PMS5003;15344;52.342;-1.290;2024-03-08T01:34:59;68;59;
28026;PMS5003;15344;52.342;-1.290;2024-03-08T01:37:24;72;58;
28026;PMS5003;15344;52.342;-1.290;2024-03-08T01:39:49;71;57;
28026;PMS5003;15344;52.342;-1.290;2024-03-08T01:42:15;71;53;
28026;PMS5003;15344;52.342;-1.290;2024-03-08T01:44:41;66;59;
28026;PMS5003;15344;52.342;-1.290;2024-03-08T01:47:07;69;57;
28026;PMS5003;15344;52.342;-1.290;2024-03-08T01:49:32;77;61;
28026;PMS5003;15344;52.342;-1.290;2024-03-08T01:51:58;79;64;
28026;PMS5003;15344;52.342;-1.290;2024-03-08T01:54:24;83;65;
28026;PMS5003;15344;52.342;-1.290;2024-03-08T01:56:49;75;58;
28026;PMS5003;15344;52.342;-1.290;2024-03-08T01:59:14;76;57;
28026;PMS5003;15344;52.342;-1.290;2024-03-08T02:01:39;82;60;
28026;PMS5003;15344;52.342;-1.290;2024-03-08T02:04:05;66;52;
28026;PMS5003;15344;52.342;-1.290;2024-03-08T02:06:31;74;55;
28026;PMS5003;15344;52.342;-1.290;2024-03-08T02:08:56;72;59;
28026;PMS5003;15344;52.342;-1.290;2024-03-08T02:11:21;72;54;
28026;PMS5003;15344;52.342;-1.290;2024-03-08T02:13:47;77;60;
28026;PMS5003;15344;52.342;-1.290;2024-03-08T02:16:12;76;50;
28026;PMS5003;15344;52.342;-1.290;2024-03-08T02:18:37;75;53;
28026;PMS5003;15344;52.342;-1.290;2024-03-08T02:21:03;71;63;
28026;PMS5003;15344;52.342;-1.290;2024-03-08T02:23:29;70;55;
28026;PMS5003;15344;52.342;-1.290;2024-03-08T02:25:55;68;51;
28026;PMS5003;15344;52.342;-1.290;2024-03-08T02:28:20;69;55;
28026;PMS5003;15344;52.342;-1.290;2024-03-08T02:30:45;74;56;
28026;PMS5003;15344;52.342;-1.290;2024-03-08T02:33:10;79;54;
28026;PMS5003;15344;52.342;-1.290;2024-03-08T02:35:36;68;53;
28026;PMS5003;15344;52.342;-1.290;2024-03-08T02:38:01;74;56;
28026;PMS5003;15344;52.342;-1.290;2024-03-08T02:40:26;73;51;
28026;PMS5003;15344;52.342;-1.290;2024-03-08T02:42:51;67;52;
28026;PMS5003;15344;52.342;-1.290;2024-03-08T02:45:16;77;53;
28026;PMS5003;15344;52.342;-1.290;2024-03-08T02:47:41;75;52;
28026;PMS5003;15344;52.342;-1.290;2024-03-08T02:50:07;66;52;
28026;PMS5003;15344;52.342;-1.290;2024-03-08T02:52:32;75;59;
28026;PMS5003;15344;52.342;-1.290;2024-03-08T02:54:57;66;52;
28026;PMS5003;15344;52.342;-1.290;2024-03-08T02:57:23;81;57;
28026;PMS5003;15344;52.342;-1.290;2024-03-08T02:59:49;83;57;
28026;PMS5003;15344;52.342;-1.290;2024-03-08T03:02:14;66;52;
28026;PMS5003;15344;52.342;-1.290;2024-03-08T03:04:40;83;62;
28026;PMS5003;15344;52.342;-1.290;2024-03-08T03:07:06;62;52;
28026;PMS5003;15344;52.342;-1.290;2024-03-08T03:09:31;69;50;
28026;PMS5003;15344;52.342;-1.290;2024-03-08T03:11:56;66;49;
28026;PMS5003;15344;52.342;-1.290;2024-03-08T03:14:22;73;53;
28026;PMS5003;15344;52.342;-1.290;2024-03-08T03:16:47;63;53;
28026;PMS5003;15344;52.342;-1.290;2024-03-08T03:19:13;69;51;
28026;PMS5003;15344;52.342;-1.290;2024-03-08T03:21:38;69;53;
28026;PMS5003;15344;52.342;-1.290;2024-03-08T03:24:03;67;53;
28026;PMS5003;15344;52.342;-1.290;2024-03-08T03:26:28;73;54;
28026;PMS5003;15344;52.342;-1.290;2024-03-08T03:28:53;59;50;
28026;PMS5003;15344;52.342;-1.290;2024-03-08T03:31:19;73;51;
28026;PMS5003;15344;52.342;-1.290;2024-03-08T03:33:44;86;53;
28026;PMS5003;15344;52.342;-1.290;2024-03-08T03:36:10;77;52;
28026;PMS5003;15344;52.342;-1.290;2024-03-08T03:38:35;66;52;
28026;PMS5003;15344;52.342;-1.290;2024-03-08T03:41:00;60;50;
28026;PMS5003;15344;52.342;-1.290;2024-03-08T03:43:26;69;55;
28026;PMS5003;15344;52.342;-1.290;2024-03-08T03:45:51;67;53;
28026;PMS5003;15344;52.342;-1.290;2024-03-08T03:48:16;67;46;
28026;PMS5003;15344;52.342;-1.290;2024-03-08T03:50:42;66;47;
28026;PMS5003;15344;52.342;-1.290;2024-03-08T03:53:07;69;52;
28026;PMS5003;15344;52.342;-1.290;2024-03-08T03:55:32;65;54;
28026;PMS5003;15344;52.342;-1.290;2024-03-08T03:57:57;76;53;
28026;PMS5003;15344;52.342;-1.290;2024-03-08T04:00:23;67;51;
28026;PMS5003;15344;52.342;-1.290;2024-03-08T04:02:49;68;48;
28026;PMS5003;15344;52.342;-1.290;2024-03-08T04:05:14;66;46;
28026;PMS5003;15344;52.342;-1.290;2024-03-08T04:07:40;62;52;
28026;PMS5003;15344;52.342;-1.290;2024-03-08T04:10:06;62;45;
28026;PMS5003;15344;52.342;-1.290;2024-03-08T04:12:31;63;47;
28026;PMS5003;15344;52.342;-1.290;2024-03-08T04:14:57;69;51;
28026;PMS5003;15344;52.342;-1.290;2024-03-08T04:17:22;66;51;
28026;PMS5003;15344;52.342;-1.290;2024-03-08T04:19:48;72;56;
28026;PMS5003;15344;52.342;-1.290;2024-03-08T04:22:13;78;54;
28026;PMS5003;15344;52.342;-1.290;2024-03-08T04:24:39;67;48;
28026;PMS5003;15344;52.342;-1.290;2024-03-08T04:27:09;59;44;
28026;PMS5003;15344;52.342;-1.290;2024-03-08T04:29:29;67;50;
28026;PMS5003;15344;52.342;-1.290;2024-03-08T04:31:55;63;49;
28026;PMS5003;15344;52.342;-1.290;2024-03-08T04:34:20;75;52;
28026;PMS5003;15344;52.342;-1.290;2024-03-08T04:36:45;67;50;
28026;PMS5003;15344;52.342;-1.290;2024-03-08T04:39:11;67;50;
28026;PMS5003;15344;52.342;-1.290;2024-03-08T04:41:37;66;51;
28026;PMS5003;15344;52.342;-1.290;2024-03-08T04:44:02;68;52;
28026;PMS5003;15344;52.342;-1.290;2024-03-08T04:46:27;68;51;
28026;PMS5003;15344;52.342;-1.290;2024-03-08T04:48:53;67;53;
28026;PMS5003;15344;52.342;-1.290;2024-03-08T04:51:19;75;52;
28026;PMS5003;15344;52.342;-1.290;2024-03-08T04:53:44;77;54;
28026;PMS5003;15344;52.342;-1.290;2024-03-08T04:56:10;66;53;
28026;PMS5003;15344;52.342;-1.290;2024-03-08T04:58:36;68;51;
28026;PMS5003;15344;52.342;-1.290;2024-03-08T05:01:01;61;49;
28026;PMS5003;15344;52.342;-1.290;2024-03-08T05:03:27;74;49;
28026;PMS5003;15344;52.342;-1.290;2024-03-08T05:05:52;66;48;
28026;PMS5003;15344;52.342;-1.290;2024-03-08T05:08:18;76;54;
28026;PMS5003;15344;52.342;-1.290;2024-03-08T05:10:43;73;57;
28026;PMS5003;15344;52.342;-1.290;2024-03-08T05:13:08;79;56;
28026;PMS5003;15344;52.342;-1.290;2024-03-08T05:15:33;69;48;
28026;PMS5003;15344;52.342;-1.290;2024-03-08T05:17:58;64;50;
28026;PMS5003;15344;52.342;-1.290;2024-03-08T05:20:24;76;53;
28026;PMS5003;15344;52.342;-1.290;2024-03-08T05:22:49;73;52;
28026;PMS5003;15344;52.342;-1.290;2024-03-08T05:25:14;69;56;
28026;PMS5003;15344;52.342;-1.290;2024-03-08T05:27:40;74;56;
28026;PMS5003;15344;52.342;-1.290;2024-03-08T05:30:06;58;51;
28026;PMS5003;15344;52.342;-1.290;2024-03-08T05:32:31;69;50;
28026;PMS5003;15344;52.342;-1.290;2024-03-08T05:34:56;68;51;
28026;PMS5003;15344;52.342;-1.290;2024-03-08T05:37:22;81;57;
28026;PMS5003;15344;52.342;-1.290;2024-03-08T05:39:47;76;52;
28026;PMS5003;15344;52.342;-1.290;2024-03-08T05:42:12;76;58;
28026;PMS5003;15344;52.342;-1.290;2024-03-08T05:44:37;66;50;
28026;PMS5003;15344;52.342;-1.290;2024-03-08T05:47:03;76;52;
28026;PMS5003;15344;52.342;-1.290;2024-03-08T05:49:28;78;60;
28026;PMS5003;15344;52.342;-1.290;2024-03-08T05:51:54;74;47;
28026;PMS5003;15344;52.342;-1.290;2024-03-08T05:54:20;66;48;
28026;PMS5003;15344;52.342;-1.290;2024-03-08T05:56:44;64;45;
28026;PMS5003;15344;52.342;-1.290;2024-03-08T05:59:10;76;52;
28026;PMS5003;15344;52.342;-1.290;2024-03-08T06:01:35;78;57;
28026;PMS5003;15344;52.342;-1.290;2024-03-08T06:04:02;71;57;
28026;PMS5003;15344;52.342;-1.290;2024-03-08T06:06:26;64;53;
28026;PMS5003;15344;52.342;-1.290;2024-03-08T06:08:52;72;55;
28026;PMS5003;15344;52.342;-1.290;2024-03-08T06:11:18;78;58;
28026;PMS5003;15344;52.342;-1.290;2024-03-08T06:13:44;78;54;
28026;PMS5003;15344;52.342;-1.290;2024-03-08T06:16:09;66;52;
28026;PMS5003;15344;52.342;-1.290;2024-03-08T06:18:34;77;53;
28026;PMS5003;15344;52.342;-1.290;2024-03-08T06:20:59;71;57;
28026;PMS5003;15344;52.342;-1.290;2024-03-08T06:23:25;63;48;
28026;PMS5003;15344;52.342;-1.290;2024-03-08T06:25:50;65;52;
28026;PMS5003;15344;52.342;-1.290;2024-03-08T06:28:16;68;57;
28026;PMS5003;15344;52.342;-1.290;2024-03-08T06:30:41;75;50;
28026;PMS5003;15344;52.342;-1.290;2024-03-08T06:33:07;75;55;
28026;PMS5003;15344;52.342;-1.290;2024-03-08T06:35:32;76;54;
28026;PMS5003;15344;52.342;-1.290;2024-03-08T06:37:58;63;54;
28026;PMS5003;15344;52.342;-1.290;2024-03-08T06:40:24;72;54;
28026;PMS5003;15344;52.342;-1.290;2024-03-08T06:42:49;74;59;
28026;PMS5003;15344;52.342;-1.290;2024-03-08T06:45:14;66;55;
28026;PMS5003;15344;52.342;-1.290;2024-03-08T06:47:39;77;57;
28026;PMS5003;15344;52.342;-1.290;2024-03-08T06:50:05;78;58;
28026;PMS5003;15344;52.342;-1.290;2024-03-08T06:52:30;86;55;
28026;PMS5003;15344;52.342;-1.290;2024-03-08T06:54:55;68;54;
28026;PMS5003;15344;52.342;-1.290;2024-03-08T06:57:21;82;57;
28026;PMS5003;15344;52.342;-1.290;2024-03-08T06:59:47;66;53;
28026;PMS5003;15344;52.342;-1.290;2024-03-08T07:02:12;69;50;
28026;PMS5003;15344;52.342;-1.290;2024-03-08T07:04:38;69;56;
28026;PMS5003;15344;52.342;-1.290;2024-03-08T07:07:03;73;56;
28026;PMS5003;15344;52.342;-1.290;2024-03-08T07:09:28;67;53;
28026;PMS5003;15344;52.342;-1.290;2024-03-08T07:11:54;76;57;
28026;PMS5003;15344;52.342;-1.290;2024-03-08T07:14:20;76;60;
28026;PMS5003;15344;52.342;-1.290;2024-03-08T07:16:44;80;59;
28026;PMS5003;15344;52.342;-1.290;2024-03-08T07:19:10;76;58;
28026;PMS5003;15344;52.342;-1.290;2024-03-08T07:21:35;69;54;
28026;PMS5003;15344;52.342;-1.290;2024-03-08T07:24:01;82;59;
28026;PMS5003;15344;52.342;-1.290;2024-03-08T07:26:26;78;56;
28026;PMS5003;15344;52.342;-1.290;2024-03-08T07:28:52;78;56;
28026;PMS5003;15344;52.342;-1.290;2024-03-08T07:31:17;77;57;
28026;PMS5003;15344;52.342;-1.290;2024-03-08T07:33:42;90;59;
28026;PMS5003;15344;52.342;-1.290;2024-03-08T07:36:08;71;55;
28026;PMS5003;15344;52.342;-1.290;2024-03-08T07:38:33;76;56;
28026;PMS5003;15344;52.342;-1.290;2024-03-08T07:40:59;84;60;
28026;PMS5003;15344;52.342;-1.290;2024-03-08T07:43:24;79;59;
28026;PMS5003;15344;52.342;-1.290;2024-03-08T07:45:49;74;60;
28026;PMS5003;15344;52.342;-1.290;2024-03-08T07:48:15;83;61;
28026;PMS5003;15344;52.342;-1.290;2024-03-08T07:50:41;86;60;
28026;PMS5003;15344;52.342;-1.290;2024-03-08T07:53:06;82;58;
28026;PMS5003;15344;52.342;-1.290;2024-03-08T07:55:31;89;62;
28026;PMS5003;15344;52.342;-1.290;2024-03-08T07:57:57;87;62;
28026;PMS5003;15344;52.342;-1.290;2024-03-08T08:00:23;76;56;
28026;PMS5003;15344;52.342;-1.290;2024-03-08T08:02:48;78;57;
28026;PMS5003;15344;52.342;-1.290;2024-03-08T08:05:14;75;59;
28026;PMS5003;15344;52.342;-1.290;2024-03-08T08:07:40;70;51;
28026;PMS5003;15344;52.342;-1.290;2024-03-08T08:10:05;84;57;
28026;PMS5003;15344;52.342;-1.290;2024-03-08T08:12:30;82;57;
28026;PMS5003;15344;52.342;-1.290;2024-03-08T08:14:55;80;59;
28026;PMS5003;15344;52.342;-1.290;2024-03-08T08:17:20;71;54;
28026;PMS5003;15344;52.342;-1.290;2024-03-08T08:19:46;83;60;
28026;PMS5003;15344;52.342;-1.290;2024-03-08T08:22:11;74;55;
28026;PMS5003;15344;52.342;-1.290;2024-03-08T08:24:36;61;47;
28026;PMS5003;15344;52.342;-1.290;2024-03-08T08:27:02;70;55;
28026;PMS5003;15344;52.342;-1.290;2024-03-08T08:29:27;74;57;
28026;PMS5003;15344;52.342;-1.290;2024-03-08T08:31:53;66;53;
28026;PMS5003;15344;52.342;-1.290;2024-03-08T08:34:18;74;56;
28026;PMS5003;15344;52.342;-1.290;2024-03-08T08:36:44;59;50;
28026;PMS5003;15344;52.342;-1.290;2024-03-08T08:39:09;69;54;
28026;PMS5003;15344;52.342;-1.290;2024-03-08T08:41:34;77;53;
28026;PMS5003;15344;52.342;-1.290;2024-03-08T08:44:00;78;54;
28026;PMS5003;15344;52.342;-1.290;2024-03-08T08:46:26;72;47;
28026;PMS5003;15344;52.342;-1.290;2024-03-08T08:48:51;71;50;
28026;PMS5003;15344;52.342;-1.290;2024-03-08T08:51:17;78;49;
28026;PMS5003;15344;52.342;-1.290;2024-03-08T08:53:42;78;55;
28026;PMS5003;15344;52.342;-1.290;2024-03-08T08:56:08;61;46;
28026;PMS5003;15344;52.342;-1.290;2024-03-08T08:58:33;68;50;
28026;PMS5003;15344;52.342;-1.290;2024-03-08T09:00:59;73;53;
28026;PMS5003;15344;52.342;-1.290;2024-03-08T09:03:25;56;50;
28026;PMS5003;15344;52.342;-1.290;2024-03-08T09:05:51;64;50;
28026;PMS5003;15344;52.342;-1.290;2024-03-08T09:08:16;69;48;
28026;PMS5003;15344;52.342;-1.290;2024-03-08T09:10:41;72;53;
28026;PMS5003;15344;52.342;-1.290;2024-03-08T09:13:06;67;50;
28026;PMS5003;15344;52.342;-1.290;2024-03-08T09:15:32;76;52;
28026;PMS5003;15344;52.342;-1.290;2024-03-08T09:17:58;69;52;
28026;PMS5003;15344;52.342;-1.290;2024-03-08T09:20:23;55;45;
28026;PMS5003;15344;52.342;-1.290;2024-03-08T09:22:49;70;54;
28026;PMS5003;15344;52.342;-1.290;2024-03-08T09:25:13;69;53;
28026;PMS5003;15344;52.342;-1.290;2024-03-08T09:27:39;83;58;
28026;PMS5003;15344;52.342;-1.290;2024-03-08T09:30:05;71;56;
28026;PMS5003;15344;52.342;-1.290;2024-03-08T09:32:30;69;59;
28026;PMS5003;15344;52.342;-1.290;2024-03-08T09:34:55;78;56;
28026;PMS5003;15344;52.342;-1.290;2024-03-08T09:37:20;80;58;
28026;PMS5003;15344;52.342;-1.290;2024-03-08T09:39:46;71;54;
28026;PMS5003;15344;52.342;-1.290;2024-03-08T09:42:11;67;52;
28026;PMS5003;15344;52.342;-1.290;2024-03-08T09:44:37;72;54;
28026;PMS5003;15344;52.342;-1.290;2024-03-08T09:47:02;80;57;
28026;PMS5003;15344;52.342;-1.290;2024-03-08T09:49:28;68;52;
28026;PMS5003;15344;52.342;-1.290;2024-03-08T09:51:53;74;55;
28026;PMS5003;15344;52.342;-1.290;2024-03-08T09:54:19;84;60;
28026;PMS5003;15344;52.342;-1.290;2024-03-08T09:56:44;65;52;
28026;PMS5003;15344;52.342;-1.290;2024-03-08T09:59:09;58;47;
28026;PMS5003;15344;52.342;-1.290;2024-03-08T10:01:34;64;46;
28026;PMS5003;15344;52.342;-1.290;2024-03-08T10:04:01;71;54;
28026;PMS5003;15344;52.342;-1.290;2024-03-08T10:06:26;60;49;
28026;PMS5003;15344;52.342;-1.290;2024-03-08T10:08:51;64;48;
28026;PMS5003;15344;52.342;-1.290;2024-03-08T10:11:16;68;52;
28026;PMS5003;15344;52.342;-1.290;2024-03-08T10:13:42;63;52;
28026;PMS5003;15344;52.342;-1.290;2024-03-08T10:16:07;79;58;
28026;PMS5003;15344;52.342;-1.290;2024-03-08T10:18:32;63;47;
28026;PMS5003;15344;52.342;-1.290;2024-03-08T10:21:02;68;49;
28026;PMS5003;15344;52.342;-1.290;2024-03-08T10:23:23;63;40;
28026;PMS5003;15344;52.342;-1.290;2024-03-08T10:25:49;75;56;
28026;PMS5003;15344;52.342;-1.290;2024-03-08T10:28:14;80;53;
28026;PMS5003;15344;52.342;-1.290;2024-03-08T10:30:39;70;51;
28026;PMS5003;15344;52.342;-1.290;2024-03-08T10:33:05;61;53;
28026;PMS5003;15344;52.342;-1.290;2024-03-08T10:35:30;68;52;
28026;PMS5003;15344;52.342;-1.290;2024-03-08T10:37:55;65;54;
28026;PMS5003;15344;52.342;-1.290;2024-03-08T10:40:21;59;49;
28026;PMS5003;15344;52.342;-1.290;2024-03-08T10:42:50;69;51;
28026;PMS5003;15344;52.342;-1.290;2024-03-08T10:45:14;70;51;
28026;PMS5003;15344;52.342;-1.290;2024-03-08T10:47:39;60;51;
28026;PMS5003;15344;52.342;-1.290;2024-03-08T10:50:06;52;47;
28026;PMS5003;15344;52.342;-1.290;2024-03-08T10:52:29;67;51;
28026;PMS5003;15344;52.342;-1.290;2024-03-08T10:54:54;67;48;
28026;PMS5003;15344;52.342;-1.290;2024-03-08T10:57:20;71;51;
28026;PMS5003;15344;52.342;-1.290;2024-03-08T10:59:47;74;59;
28026;PMS5003;15344;52.342;-1.290;2024-03-08T11:02:11;72;54;
28026;PMS5003;15344;52.342;-1.290;2024-03-08T11:04:36;67;48;
28026;PMS5003;15344;52.342;-1.290;2024-03-08T11:07:02;68;48;
28026;PMS5003;15344;52.342;-1.290;2024-03-08T11:09:28;67;50;
28026;PMS5003;15344;52.342;-1.290;2024-03-08T11:11:53;57;49;
28026;PMS5003;15344;52.342;-1.290;2024-03-08T11:16:44;68;45;
28026;PMS5003;15344;52.342;-1.290;2024-03-08T11:21:35;65;50;
28026;PMS5003;15344;52.342;-1.290;2024-03-08T11:24:01;50;47;
28026;PMS5003;15344;52.342;-1.290;2024-03-08T11:26:26;76;56;
28026;PMS5003;15344;52.342;-1.290;2024-03-08T11:28:51;59;46;
28026;PMS5003;15344;52.342;-1.290;2024-03-08T11:33:42;61;49;
28026;PMS5003;15344;52.342;-1.290;2024-03-08T11:36:07;75;59;
28026;PMS5003;15344;52.342;-1.290;2024-03-08T11:38:33;59;51;
28026;PMS5003;15344;52.342;-1.290;2024-03-08T11:40:58;68;48;
28026;PMS5003;15344;52.342;-1.290;2024-03-08T11:43:24;60;54;
28026;PMS5003;15344;52.342;-1.290;2024-03-08T11:45:50;52;46;
28026;PMS5003;15344;52.342;-1.290;2024-03-08T11:48:15;66;49;
28026;PMS5003;15344;52.342;-1.290;2024-03-08T11:50:40;66;52;
28026;PMS5003;15344;52.342;-1.290;2024-03-08T11:53:06;68;56;
28026;PMS5003;15344;52.342;-1.290;2024-03-08T11:55:31;63;49;
28026;PMS5003;15344;52.342;-1.290;2024-03-08T11:58:01;70;56;
28026;PMS5003;15344;52.342;-1.290;2024-03-08T12:00:22;58;46;
28026;PMS5003;15344;52.342;-1.290;2024-03-08T12:05:12;71;53;
28026;PMS5003;15344;52.342;-1.290;2024-03-08T12:07:38;57;46;
28026;PMS5003;15344;52.342;-1.290;2024-03-08T12:12:29;63;45;
28026;PMS5003;15344;52.342;-1.290;2024-03-08T12:14:54;64;46;
28026;PMS5003;15344;52.342;-1.290;2024-03-08T12:17:20;72;53;
28026;PMS5003;15344;52.342;-1.290;2024-03-08T12:19:46;63;46;
28026;PMS5003;15344;52.342;-1.290;2024-03-08T12:22:11;71;50;
28026;PMS5003;15344;52.342;-1.290;2024-03-08T12:24:37;64;47;
28026;PMS5003;15344;52.342;-1.290;2024-03-08T12:27:02;61;46;
28026;PMS5003;15344;52.342;-1.290;2024-03-08T12:29:27;61;47;
28026;PMS5003;15344;52.342;-1.290;2024-03-08T12:31:54;67;51;
28026;PMS5003;15344;52.342;-1.290;2024-03-08T12:34:18;54;47;
28026;PMS5003;15344;52.342;-1.290;2024-03-08T12:36:45;52;41;
28026;PMS5003;15344;52.342;-1.290;2024-03-08T12:39:11;64;49;
28026;PMS5003;15344;52.342;-1.290;2024-03-08T12:41:38;62;46;
28026;PMS5003;15344;52.342;-1.290;2024-03-08T12:44:01;50;43;
28026;PMS5003;15344;52.342;-1.290;2024-03-08T12:46:26;59;46;
28026;PMS5003;15344;52.342;-1.290;2024-03-08T12:48:52;61;45;
28026;PMS5003;15344;52.342;-1.290;2024-03-08T12:51:18;54;43;
28026;PMS5003;15344;52.342;-1.290;2024-03-08T12:53:43;51;40;
28026;PMS5003;15344;52.342;-1.290;2024-03-08T12:56:09;62;50;
28026;PMS5003;15344;52.342;-1.290;2024-03-08T12:58:35;60;46;
28026;PMS5003;15344;52.342;-1.290;2024-03-08T13:01:00;54;47;
28026;PMS5003;15344;52.342;-1.290;2024-03-08T13:03:25;57;49;
28026;PMS5003;15344;52.342;-1.290;2024-03-08T13:05:51;59;43;
28026;PMS5003;15344;52.342;-1.290;2024-03-08T13:08:16;54;43;
28026;PMS5003;15344;52.342;-1.290;2024-03-08T13:10:41;67;46;
28026;PMS5003;15344;52.342;-1.290;2024-03-08T13:13:06;55;41;
28026;PMS5003;15344;52.342;-1.290;2024-03-08T13:15:32;66;50;
28026;PMS5003;15344;52.342;-1.290;2024-03-08T13:17:57;57;43;
28026;PMS5003;15344;52.342;-1.290;2024-03-08T13:20:23;59;47;
28026;PMS5003;15344;52.342;-1.290;2024-03-08T13:22:48;55;45;
28026;PMS5003;15344;52.342;-1.290;2024-03-08T13:25:13;42;40;
28026;PMS5003;15344;52.342;-1.290;2024-03-08T13:27:39;60;44;
28026;PMS5003;15344;52.342;-1.290;2024-03-08T13:30:04;52;42;
28026;PMS5003;15344;52.342;-1.290;2024-03-08T13:32:30;56;42;
28026;PMS5003;15344;52.342;-1.290;2024-03-08T13:34:55;54;38;
28026;PMS5003;15344;52.342;-1.290;2024-03-08T13:37:21;53;39;
28026;PMS5003;15344;52.342;-1.290;2024-03-08T13:39:46;62;43;
28026;PMS5003;15344;52.342;-1.290;2024-03-08T13:42:12;62;40;
28026;PMS5003;15344;52.342;-1.290;2024-03-08T13:44:37;53;39;
28026;PMS5003;15344;52.342;-1.290;2024-03-08T13:47:03;49;40;
28026;PMS5003;15344;52.342;-1.290;2024-03-08T13:49:28;45;38;
28026;PMS5003;15344;52.342;-1.290;2024-03-08T13:51:53;59;44;
28026;PMS5003;15344;52.342;-1.290;2024-03-08T13:54:19;62;43;
28026;PMS5003;15344;52.342;-1.290;2024-03-08T13:56:44;54;39;
28026;PMS5003;15344;52.342;-1.290;2024-03-08T13:59:09;43;35;
28026;PMS5003;15344;52.342;-1.290;2024-03-08T14:01:35;49;37;
28026;PMS5003;15344;52.342;-1.290;2024-03-08T14:04:00;57;44;
28026;PMS5003;15344;52.342;-1.290;2024-03-08T14:06:25;45;38;
28026;PMS5003;15344;52.342;-1.290;2024-03-08T14:08:51;53;36;
28026;PMS5003;15344;52.342;-1.290;2024-03-08T14:11:16;44;38;
28026;PMS5003;15344;52.342;-1.290;2024-03-08T14:13:41;58;42;
28026;PMS5003;15344;52.342;-1.290;2024-03-08T14:16:07;48;36;
28026;PMS5003;15344;52.342;-1.290;2024-03-08T14:18:32;56;44;
28026;PMS5003;15344;52.342;-1.290;2024-03-08T14:20:58;52;40;
28026;PMS5003;15344;52.342;-1.290;2024-03-08T14:23:23;56;38;
28026;PMS5003;15344;52.342;-1.290;2024-03-08T14:25:49;44;38;
28026;PMS5003;15344;52.342;-1.290;2024-03-08T14:28:14;53;37;
28026;PMS5003;15344;52.342;-1.290;2024-03-08T14:30:39;49;41;
28026;PMS5003;15344;52.342;-1.290;2024-03-08T14:33:05;49;36;
28026;PMS5003;15344;52.342;-1.290;2024-03-08T14:35:30;52;39;
28026;PMS5003;15344;52.342;-1.290;2024-03-08T14:37:56;47;33;
28026;PMS5003;15344;52.342;-1.290;2024-03-08T14:40:21;49;37;
28026;PMS5003;15344;52.342;-1.290;2024-03-08T14:42:46;50;37;
28026;PMS5003;15344;52.342;-1.290;2024-03-08T14:45:12;35;30;
28026;PMS5003;15344;52.342;-1.290;2024-03-08T14:47:37;37;31;
28026;PMS5003;15344;52.342;-1.290;2024-03-08T14:50:03;45;29;
28026;PMS5003;15344;52.342;-1.290;2024-03-08T14:52:28;41;32;
28026;PMS5003;15344;52.342;-1.290;2024-03-08T14:54:54;43;34;
28026;PMS5003;15344;52.342;-1.290;2024-03-08T14:57:20;42;31;
28026;PMS5003;15344;52.342;-1.290;2024-03-08T14:59:45;47;36;
28026;PMS5003;15344;52.342;-1.290;2024-03-08T15:02:11;45;33;
28026;PMS5003;15344;52.342;-1.290;2024-03-08T15:04:36;32;29;
28026;PMS5003;15344;52.342;-1.290;2024-03-08T15:07:01;50;34;
28026;PMS5003;15344;52.342;-1.290;2024-03-08T15:09:27;45;32;
28026;PMS5003;15344;52.342;-1.290;2024-03-08T15:11:52;43;32;
28026;PMS5003;15344;52.342;-1.290;2024-03-08T15:14:18;39;30;
28026;PMS5003;15344;52.342;-1.290;2024-03-08T15:16:43;45;35;
28026;PMS5003;15344;52.342;-1.290;2024-03-08T15:19:09;42;29;
28026;PMS5003;15344;52.342;-1.290;2024-03-08T15:21:34;48;34;
28026;PMS5003;15344;52.342;-1.290;2024-03-08T15:23:59;39;30;
28026;PMS5003;15344;52.342;-1.290;2024-03-08T15:26:24;46;33;
28026;PMS5003;15344;52.342;-1.290;2024-03-08T15:28:50;46;37;
28026;PMS5003;15344;52.342;-1.290;2024-03-08T15:31:16;47;34;
28026;PMS5003;15344;52.342;-1.290;2024-03-08T15:33:41;44;29;
28026;PMS5003;15344;52.342;-1.290;2024-03-08T15:36:07;48;37;
28026;PMS5003;15344;52.342;-1.290;2024-03-08T15:38:32;44;31;
28026;PMS5003;15344;52.342;-1.290;2024-03-08T15:40:58;49;30;
28026;PMS5003;15344;52.342;-1.290;2024-03-08T15:43:23;41;30;
28026;PMS5003;15344;52.342;-1.290;2024-03-08T15:45:49;40;29;
28026;PMS5003;15344;52.342;-1.290;2024-03-08T15:48:14;34;26;
28026;PMS5003;15344;52.342;-1.290;2024-03-08T15:50:39;37;29;
28026;PMS5003;15344;52.342;-1.290;2024-03-08T15:53:05;39;30;
28026;PMS5003;15344;52.342;-1.290;2024-03-08T15:55:30;42;30;
28026;PMS5003;15344;52.342;-1.290;2024-03-08T15:57:56;34;24;
28026;PMS5003;15344;52.342;-1.290;2024-03-08T16:00:22;30;24;